Time;durP1;ratioP1;P1;durP2;ratioP2;P2;SDS_P1;SDS_P2;PMS_P1;PMS_P2;Temp;Humidity;BMP_temperature;BMP_pressure;BME280_temperature;BME280_humidity;BME280_pressure;Samples;Min_cycle;Max_cycle;Signal;HPM_P1;HPM_P2
2021/07/04 00:01:24;;;;;;;24.37;7.23;;;24.40;99.90;;;;;;5081498;28;20182;-74
2021/07/04 00:03:50;;;;;;;25.77;6.93;;;24.40;99.90;;;;;;5107069;27;20209;-75
2021/07/04 00:06:17;;;;;;;20.20;7.10;;;24.50;99.90;;;;;;5109953;27;20293;-76
2021/07/04 00:08:43;;;;;;;20.90;6.90;;;24.50;99.90;;;;;;5093013;28;20650;-75
2021/07/04 00:11:11;;;;;;;20.90;7.07;;;24.30;99.90;;;;;;5104697;27;20189;-75
2021/07/04 00:13:39;;;;;;;22.17;6.50;;;24.20;99.90;;;;;;5069536;28;20291;-76
2021/07/04 00:16:06;;;;;;;25.40;6.47;;;24.30;99.90;;;;;;5106782;27;20682;-76
2021/07/04 00:18:35;;;;;;;22.70;6.60;;;24.20;99.90;;;;;;5103305;27;20276;-74
2021/07/04 00:21:07;;;;;;;26.47;6.80;;;24.30;99.90;;;;;;5085935;28;20216;-76
2021/07/04 00:23:34;;;;;;;31.80;8.10;;;24.20;99.90;;;;;;5087889;28;20201;-75
2021/07/04 00:26:00;;;;;;;31.47;8.10;;;24.10;99.90;;;;;;5073831;28;20232;-75
2021/07/04 00:28:27;;;;;;;25.47;7.40;;;24.10;99.90;;;;;;5086397;28;20190;-75
2021/07/04 00:30:54;;;;;;;24.90;6.70;;;24.20;99.90;;;;;;5078344;28;20220;-75
2021/07/04 00:33:22;;;;;;;20.30;7.07;;;24.20;99.90;;;;;;5089466;28;20554;-76
2021/07/04 00:35:48;;;;;;;26.23;7.97;;;24.10;99.90;;;;;;5104912;27;20189;-75
2021/07/04 00:38:15;;;;;;;30.83;7.13;;;24.20;99.90;;;;;;5087136;28;20178;-77
2021/07/04 00:40:43;;;;;;;27.00;8.17;;;24.10;99.90;;;;;;5085644;28;20754;-74
2021/07/04 00:43:10;;;;;;;29.50;7.87;;;24.20;99.90;;;;;;5074746;28;20193;-75
2021/07/04 00:45:39;;;;;;;23.17;7.00;;;24.10;99.90;;;;;;5070228;28;20499;-75
2021/07/04 00:48:06;;;;;;;26.10;7.43;;;24.20;99.90;;;;;;5093906;28;20186;-76
2021/07/04 00:50:34;;;;;;;20.25;6.57;;;24.30;99.90;;;;;;5079725;28;20268;-76
2021/07/04 00:53:03;;;;;;;19.43;6.33;;;24.20;99.90;;;;;;5083124;28;20232;-75
2021/07/04 00:55:30;;;;;;;26.10;6.87;;;24.30;99.90;;;;;;5069599;28;20182;-74
2021/07/04 00:57:57;;;;;;;19.42;5.95;;;24.30;99.90;;;;;;5086001;28;20193;-75
2021/07/04 01:00:29;;;;;;;21.93;7.40;;;24.30;99.90;;;;;;5083422;28;20186;-77
2021/07/04 01:02:56;;;;;;;21.67;6.80;;;24.30;99.90;;;;;;5093167;27;20317;-75
2021/07/04 01:05:27;;;;;;;25.73;7.77;;;24.30;99.90;;;;;;5085545;28;20201;-75
2021/07/04 01:07:54;;;;;;;28.10;7.93;;;24.30;99.90;;;;;;5088865;28;20276;-76
2021/07/04 01:10:27;;;;;;;26.03;8.03;;;24.10;99.90;;;;;;5086699;28;20280;-76
2021/07/04 01:12:56;;;;;;;20.87;6.43;;;24.20;99.90;;;;;;5101927;27;20206;-74
2021/07/04 01:15:27;;;;;;;19.87;6.80;;;24.20;99.90;;;;;;5107499;27;20178;-76
2021/07/04 01:18:00;;;;;;;28.87;7.47;;;24.20;99.90;;;;;;5086308;28;20951;-75
2021/07/04 01:20:29;;;;;;;21.00;7.20;;;24.20;99.90;;;;;;5087829;28;20178;-74
2021/07/04 01:23:05;;;;;;;28.97;7.87;;;24.30;99.90;;;;;;5088520;28;20192;-75
2021/07/04 01:25:35;;;;;;;28.63;7.32;;;24.30;99.90;;;;;;5085138;28;20190;-75
2021/07/04 01:28:02;;;;;;;21.90;7.30;;;24.20;99.90;;;;;;5087277;28;20519;-75
2021/07/04 01:30:29;;;;;;;22.03;7.50;;;24.20;99.90;;;;;;5085873;28;20209;-75
2021/07/04 01:32:57;;;;;;;22.97;6.90;;;24.10;99.90;;;;;;5075379;28;20281;-75
2021/07/04 01:35:24;;;;;;;24.77;7.90;;;24.10;99.90;;;;;;5087701;28;20193;-76
2021/07/04 01:37:51;;;;;;;30.17;8.10;;;24.10;99.90;;;;;;5070753;28;20178;-74
2021/07/04 01:40:18;;;;;;;27.93;8.77;;;24.10;99.90;;;;;;5065381;28;20224;-76
2021/07/04 01:42:45;;;;;;;26.17;7.90;;;24.10;99.90;;;;;;5080553;28;20289;-75
2021/07/04 01:45:16;;;;;;;20.23;6.80;;;24.20;99.90;;;;;;5095650;28;20690;-74
2021/07/04 01:47:45;;;;;;;25.67;7.43;;;24.30;99.90;;;;;;5083057;28;20194;-75
2021/07/04 01:50:19;;;;;;;18.60;7.07;;;24.30;99.90;;;;;;5097580;27;20320;-76
2021/07/04 01:52:46;;;;;;;25.77;8.50;;;24.30;99.90;;;;;;5085370;28;20271;-75
2021/07/04 01:55:15;;;;;;;22.37;6.90;;;24.20;99.90;;;;;;5085510;28;20193;-75
2021/07/04 01:57:43;;;;;;;25.80;7.83;;;24.10;99.90;;;;;;5085659;28;20186;-76
2021/07/04 02:00:21;;;;;;;20.30;6.80;;;24.20;99.90;;;;;;5082538;28;20191;-77
2021/07/04 02:02:51;;;;;;;19.77;7.27;;;24.20;99.90;;;;;;5078521;28;20182;-74
2021/07/04 02:05:18;;;;;;;31.30;8.53;;;24.20;99.90;;;;;;5082445;28;20297;-74
2021/07/04 02:07:45;;;;;;;25.65;7.45;;;24.20;99.90;;;;;;5088844;28;20219;-76
2021/07/04 02:10:21;;;;;;;24.27;7.73;;;24.30;99.90;;;;;;5099187;28;20233;-74
2021/07/04 02:12:48;;;;;;;22.23;7.67;;;24.40;99.90;;;;;;5084263;28;20217;-75
2021/07/04 02:15:24;;;;;;;17.77;6.63;;;24.40;99.90;;;;;;5071814;28;20192;-75
2021/07/04 02:17:51;;;;;;;27.53;8.47;;;24.30;99.90;;;;;;5100841;27;20294;-77
2021/07/04 02:20:26;;;;;;;25.57;7.40;;;24.30;99.90;;;;;;5084359;28;20187;-76
2021/07/04 02:22:53;;;;;;;24.73;6.87;;;24.20;99.90;;;;;;5085026;28;20190;-75
2021/07/04 02:25:19;;;;;;;21.67;7.32;;;24.20;99.90;;;;;;5084630;28;20181;-76
2021/07/04 02:27:45;;;;;;;28.17;7.73;;;24.20;99.90;;;;;;5087666;28;20208;-76
2021/07/04 02:30:12;;;;;;;27.87;8.57;;;24.20;99.90;;;;;;5085421;28;20538;-75
2021/07/04 02:32:39;;;;;;;21.00;7.63;;;24.20;99.90;;;;;;5068455;28;20306;-75
2021/07/04 02:35:07;;;;;;;31.33;8.40;;;24.30;99.90;;;;;;5114975;27;20713;-76
2021/07/04 02:37:33;;;;;;;25.60;8.10;;;24.30;99.90;;;;;;5090036;28;20260;-74
2021/07/04 02:40:00;;;;;;;30.50;8.40;;;24.20;99.90;;;;;;5089455;28;20185;-74
2021/07/04 02:42:26;;;;;;;26.40;8.17;;;24.20;99.90;;;;;;5086863;28;20190;-75
2021/07/04 02:44:52;;;;;;;20.92;7.53;;;24.20;99.90;;;;;;5065453;28;20183;-75
2021/07/04 02:47:19;;;;;;;21.83;7.30;;;24.30;99.90;;;;;;5100778;28;20209;-74
2021/07/04 02:49:45;;;;;;;28.75;8.30;;;24.20;99.90;;;;;;5100897;28;20555;-75
2021/07/04 02:52:11;;;;;;;21.73;7.33;;;24.10;99.90;;;;;;5085757;28;20293;-75
2021/07/04 02:54:38;;;;;;;22.73;8.30;;;24.00;99.90;;;;;;5069124;28;20174;-74
2021/07/04 02:57:05;;;;;;;23.47;8.50;;;24.00;99.90;;;;;;5105266;28;20592;-75
2021/07/04 02:59:34;;;;;;;23.83;8.67;;;24.10;99.90;;;;;;5085765;28;20846;-76
2021/07/04 03:02:01;;;;;;;35.00;8.30;;;24.10;99.90;;;;;;5083726;28;20189;-75
2021/07/04 03:04:27;;;;;;;28.20;8.37;;;24.10;99.90;;;;;;5078980;28;20694;-76
2021/07/04 03:06:55;;;;;;;21.47;8.27;;;24.10;99.90;;;;;;5064694;28;20646;-74
2021/07/04 03:09:21;;;;;;;24.37;8.70;;;24.10;99.90;;;;;;5088515;28;20221;-74
2021/07/04 03:11:48;;;;;;;20.83;8.97;;;24.10;99.90;;;;;;5107866;27;20193;-76
2021/07/04 03:14:14;;;;;;;26.42;8.50;;;24.10;99.90;;;;;;5104769;27;20217;-77
2021/07/04 03:16:41;;;;;;;20.33;7.37;;;24.10;99.90;;;;;;5075966;28;20186;-76
2021/07/04 03:19:07;;;;;;;23.83;9.00;;;24.20;99.90;;;;;;5091905;28;20697;-75
2021/07/04 03:21:34;;;;;;;18.13;7.60;;;24.10;99.90;;;;;;5107087;27;20209;-74
2021/07/04 03:24:00;;;;;;;26.90;8.03;;;24.10;99.90;;;;;;5095434;28;20193;-76
2021/07/04 03:26:26;;;;;;;19.07;7.80;;;24.10;99.90;;;;;;5092929;28;20394;-74
2021/07/04 03:28:53;;;;;;;25.67;8.27;;;24.10;99.90;;;;;;5093730;28;20233;-77
2021/07/04 03:31:19;;;;;;;23.73;8.50;;;24.10;99.90;;;;;;5093600;28;20186;-75
2021/07/04 03:33:45;;;;;;;18.77;7.73;;;24.10;99.90;;;;;;5076427;28;20205;-77
2021/07/04 03:36:12;;;;;;;26.53;8.80;;;24.10;99.90;;;;;;5080107;28;20183;-76
2021/07/04 03:38:38;;;;;;;15.90;8.37;;;24.00;99.90;;;;;;5093638;28;20565;-73
2021/07/04 03:41:05;;;;;;;22.23;8.17;;;24.10;99.90;;;;;;5109993;27;20182;-75
2021/07/04 03:43:31;;;;;;;29.07;9.47;;;24.20;99.90;;;;;;5107573;27;20820;-75
2021/07/04 03:45:57;;;;;;;29.17;9.20;;;24.20;99.90;;;;;;5090246;28;20201;-76
2021/07/04 03:48:24;;;;;;;19.40;8.37;;;24.20;99.90;;;;;;5089304;28;20246;-76
2021/07/04 03:50:50;;;;;;;28.97;8.90;;;24.30;99.90;;;;;;5091816;28;20186;-76
2021/07/04 03:53:16;;;;;;;22.83;8.80;;;24.20;99.90;;;;;;5091685;28;20745;-75
2021/07/04 03:55:43;;;;;;;24.53;8.77;;;24.20;99.90;;;;;;5093393;28;20195;-75
2021/07/04 03:58:09;;;;;;;24.60;9.18;;;24.30;99.90;;;;;;5107603;27;20522;-77
2021/07/04 04:00:36;;;;;;;29.93;9.40;;;24.30;99.90;;;;;;5113174;27;20198;-77
2021/07/04 04:03:02;;;;;;;22.43;8.67;;;24.20;99.90;;;;;;5105459;27;20820;-75
2021/07/04 04:05:29;;;;;;;28.20;9.53;;;24.30;99.90;;;;;;5106854;27;20277;-75
2021/07/04 04:07:55;;;;;;;22.60;8.87;;;24.30;99.90;;;;;;5087154;28;20665;-76
2021/07/04 04:10:21;;;;;;;30.95;10.27;;;24.30;99.90;;;;;;5108036;27;20192;-76
2021/07/04 04:12:48;;;;;;;21.60;8.52;;;24.30;99.90;;;;;;5090330;28;20206;-76
2021/07/04 04:15:14;;;;;;;29.97;8.90;;;24.40;99.90;;;;;;5090354;28;20251;-75
2021/07/04 04:17:41;;;;;;;27.08;9.27;;;24.40;99.90;;;;;;5090117;28;20189;-77
2021/07/04 04:20:08;;;;;;;30.23;9.27;;;24.50;99.90;;;;;;5107099;27;20182;-75
2021/07/04 04:22:36;;;;;;;26.57;8.57;;;24.50;99.90;;;;;;5072780;28;20258;-75
2021/07/04 04:25:03;;;;;;;29.40;9.95;;;24.50;99.90;;;;;;5074681;28;20181;-76
2021/07/04 04:27:30;;;;;;;32.40;9.47;;;24.50;99.90;;;;;;5077529;28;20209;-77
2021/07/04 04:29:56;;;;;;;29.20;9.47;;;24.50;99.90;;;;;;5103809;27;20281;-76
2021/07/04 04:32:23;;;;;;;32.83;9.40;;;24.50;99.90;;;;;;5088443;28;20187;-75
2021/07/04 04:34:49;;;;;;;32.47;9.53;;;24.50;99.90;;;;;;5109909;27;20178;-76
2021/07/04 04:37:16;;;;;;;35.40;9.97;;;24.50;99.90;;;;;;5086585;28;20189;-77
2021/07/04 04:39:42;;;;;;;22.87;9.83;;;24.60;99.90;;;;;;5082697;28;20213;-78
2021/07/04 04:42:09;;;;;;;36.13;10.57;;;24.60;99.90;;;;;;5102322;27;20902;-74
2021/07/04 04:44:36;;;;;;;33.83;9.80;;;24.60;99.90;;;;;;5095437;28;20189;-75
2021/07/04 04:47:05;;;;;;;30.00;10.07;;;24.60;99.90;;;;;;5093712;28;20189;-77
2021/07/04 04:49:32;;;;;;;26.50;9.47;;;24.60;99.90;;;;;;5071484;28;20205;-75
2021/07/04 04:51:59;;;;;;;28.53;9.47;;;24.70;99.90;;;;;;5106812;27;20246;-75
2021/07/04 04:54:25;;;;;;;33.07;10.50;;;24.70;99.90;;;;;;5071293;28;20201;-75
2021/07/04 04:56:52;;;;;;;37.60;10.37;;;24.70;99.90;;;;;;5107934;27;20674;-76
2021/07/04 04:59:18;;;;;;;30.80;9.97;;;24.80;99.90;;;;;;5102727;27;20208;-74
2021/07/04 05:01:45;;;;;;;35.30;10.53;;;24.80;99.90;;;;;;5105904;27;20641;-74
2021/07/04 05:04:11;;;;;;;31.67;10.77;;;24.80;99.90;;;;;;5109645;27;20179;-76
2021/07/04 05:06:37;;;;;;;29.37;10.23;;;24.70;99.90;;;;;;5090601;28;20239;-75
2021/07/04 05:09:04;;;;;;;41.03;10.60;;;24.70;99.90;;;;;;5076907;28;20310;-76
2021/07/04 05:11:31;;;;;;;34.67;10.07;;;24.70;99.90;;;;;;5073571;28;20190;-75
2021/07/04 05:13:58;;;;;;;28.23;9.63;;;24.70;99.90;;;;;;5106933;27;20708;-76
2021/07/04 05:16:24;;;;;;;29.87;10.70;;;24.70;99.90;;;;;;5073363;28;20182;-76
2021/07/04 05:18:50;;;;;;;33.80;10.33;;;24.70;99.90;;;;;;5087090;28;20262;-75
2021/07/04 05:21:17;;;;;;;39.83;10.73;;;24.70;99.90;;;;;;5070864;28;20702;-74
2021/07/04 05:23:43;;;;;;;31.77;10.30;;;24.70;99.90;;;;;;5091297;28;20207;-75
2021/07/04 05:26:09;;;;;;;35.17;10.63;;;24.70;99.90;;;;;;5070015;28;20193;-76
2021/07/04 05:28:36;;;;;;;26.47;10.30;;;24.80;99.90;;;;;;5089906;28;20186;-75
2021/07/04 05:31:02;;;;;;;30.63;9.87;;;24.80;99.90;;;;;;5090564;28;20182;-76
2021/07/04 05:33:29;;;;;;;30.40;11.10;;;24.80;99.90;;;;;;5105969;27;20235;-75
2021/07/04 05:35:55;;;;;;;35.17;11.30;;;24.80;99.90;;;;;;5095318;28;20211;-78
2021/07/04 05:38:23;;;;;;;31.05;10.07;;;24.90;99.90;;;;;;5085791;28;20182;-75
2021/07/04 05:40:52;;;;;;;37.33;9.50;;;24.90;99.90;;;;;;5081452;28;20193;-76
2021/07/04 05:43:19;;;;;;;36.08;9.63;;;25.00;99.90;;;;;;5102817;27;20269;-77
2021/07/04 05:45:46;;;;;;;38.50;10.25;;;25.00;99.90;;;;;;5100917;28;20186;-76
2021/07/04 05:48:12;;;;;;;33.10;10.03;;;25.10;99.90;;;;;;5071089;28;20592;-74
2021/07/04 05:50:39;;;;;;;34.47;9.77;;;25.20;99.90;;;;;;5077804;28;20322;-74
2021/07/04 05:53:05;;;;;;;28.33;8.70;;;25.30;99.90;;;;;;5104613;27;20203;-77
2021/07/04 05:55:32;;;;;;;40.67;10.18;;;25.30;99.90;;;;;;5084779;28;20178;-75
2021/07/04 05:57:59;;;;;;;27.80;9.85;;;25.30;99.90;;;;;;5098237;27;20175;-76
2021/07/04 06:00:26;;;;;;;26.27;8.93;;;25.30;99.90;;;;;;5083316;28;20194;-73
2021/07/04 06:02:52;;;;;;;37.92;8.90;;;25.30;99.90;;;;;;5087178;28;20280;-75
2021/07/04 06:05:18;;;;;;;27.70;9.77;;;25.20;99.90;;;;;;5101161;27;20190;-74
2021/07/04 06:07:46;;;;;;;27.83;10.23;;;25.30;99.90;;;;;;5085317;28;20959;-77
2021/07/04 06:10:13;;;;;;;23.45;8.70;;;25.30;99.90;;;;;;5053707;28;20237;-76
2021/07/04 06:12:40;;;;;;;42.80;9.53;;;25.30;99.90;;;;;;5085154;28;20241;-74
2021/07/04 06:15:08;;;;;;;35.95;9.13;;;25.40;99.90;;;;;;5085534;28;20675;-75
2021/07/04 06:17:34;;;;;;;33.15;8.45;;;25.30;99.90;;;;;;5086596;28;20193;-75
2021/07/04 06:20:01;;;;;;;31.63;9.15;;;25.30;99.90;;;;;;5086904;28;20195;-76
2021/07/04 06:22:27;;;;;;;29.42;8.13;;;25.30;99.90;;;;;;5097911;27;20259;-76
2021/07/04 06:24:54;;;;;;;35.83;9.25;;;25.30;99.90;;;;;;5083671;28;20293;-76
2021/07/04 06:27:20;;;;;;;38.55;8.68;;;25.30;99.90;;;;;;5099954;28;20186;-75
2021/07/04 06:29:46;;;;;;;27.38;8.75;;;25.30;99.90;;;;;;5084223;28;20186;-74
2021/07/04 06:32:13;;;;;;;26.08;8.45;;;25.30;99.90;;;;;;5100264;27;20272;-77
2021/07/04 06:34:39;;;;;;;28.05;8.55;;;25.30;99.90;;;;;;5063676;28;20240;-75
2021/07/04 06:37:06;;;;;;;28.60;8.10;;;25.30;99.90;;;;;;5082258;28;20170;-73
2021/07/04 06:39:32;;;;;;;22.25;7.53;;;25.30;99.90;;;;;;5056065;28;20202;-76
2021/07/04 06:42:00;;;;;;;34.20;8.48;;;25.30;99.90;;;;;;5076864;28;20189;-77
2021/07/04 06:44:27;;;;;;;29.98;8.43;;;25.30;99.90;;;;;;5068898;28;21349;-75
2021/07/04 06:46:53;;;;;;;24.25;7.45;;;25.30;99.90;;;;;;5087111;28;20183;-75
2021/07/04 06:49:20;;;;;;;28.05;8.65;;;25.20;99.90;;;;;;5101026;27;20642;-75
2021/07/04 06:51:46;;;;;;;29.92;8.23;;;25.30;99.90;;;;;;5090627;28;20194;-74
2021/07/04 06:54:13;;;;;;;30.48;8.75;;;25.30;99.90;;;;;;5086921;28;20217;-76
2021/07/04 06:56:40;;;;;;;28.15;8.02;;;25.30;99.90;;;;;;5106892;27;20189;-76
2021/07/04 06:59:07;;;;;;;33.50;9.05;;;25.30;99.90;;;;;;5103214;27;20212;-75
2021/07/04 07:01:33;;;;;;;32.67;8.10;;;25.30;99.90;;;;;;5083594;28;20218;-77
2021/07/04 07:04:01;;;;;;;19.00;7.32;;;25.30;99.90;;;;;;5068898;28;20189;-75
2021/07/04 07:06:28;;;;;;;31.70;8.70;;;25.40;99.90;;;;;;5070049;28;20190;-75
2021/07/04 07:08:54;;;;;;;27.08;8.75;;;25.50;99.90;;;;;;5121478;27;20194;-75
2021/07/04 07:11:22;;;;;;;29.77;7.97;;;25.50;99.90;;;;;;5083570;28;20315;-77
2021/07/04 07:13:48;;;;;;;35.80;8.95;;;25.50;99.90;;;;;;5082090;28;20221;-77
2021/07/04 07:16:15;;;;;;;31.05;9.38;;;25.50;99.90;;;;;;5124684;27;20183;-75
2021/07/04 07:18:41;;;;;;;24.02;8.70;;;25.50;99.90;;;;;;5087075;28;20254;-76
2021/07/04 07:21:07;;;;;;;31.27;8.50;;;25.60;99.90;;;;;;5085650;28;20209;-77
2021/07/04 07:23:34;;;;;;;29.58;8.63;;;25.70;99.90;;;;;;5091040;28;20673;-75
2021/07/04 07:26:01;;;;;;;27.48;8.23;;;25.90;99.90;;;;;;5088552;28;20294;-76
2021/07/04 07:28:27;;;;;;;32.50;8.45;;;25.90;99.90;;;;;;5092355;28;20606;-75
2021/07/04 07:30:54;;;;;;;27.20;9.25;;;25.80;99.90;;;;;;5074108;28;20559;-77
2021/07/04 07:33:21;;;;;;;29.92;8.80;;;25.80;99.90;;;;;;5088677;28;20214;-75
2021/07/04 07:35:50;;;;;;;24.58;8.70;;;25.80;99.90;;;;;;5087860;28;20174;-74
2021/07/04 07:38:19;;;;;;;26.60;9.70;;;25.80;99.90;;;;;;5088660;28;20186;-75
2021/07/04 07:40:45;;;;;;;27.48;9.05;;;25.90;99.90;;;;;;5102911;27;20178;-77
2021/07/04 07:43:12;;;;;;;28.88;9.63;;;25.90;99.90;;;;;;5077251;28;20285;-74
2021/07/04 07:45:40;;;;;;;28.15;8.32;;;26.10;99.90;;;;;;5085041;28;20194;-77
2021/07/04 07:48:06;;;;;;;21.52;8.95;;;26.20;99.90;;;;;;5084328;28;20849;-76
2021/07/04 07:50:34;;;;;;;28.25;8.98;;;26.10;99.90;;;;;;5084462;28;20294;-78
2021/07/04 07:53:01;;;;;;;35.35;9.48;;;26.30;99.90;;;;;;5073193;28;20198;-76
2021/07/04 07:55:27;;;;;;;29.75;8.77;;;26.20;99.90;;;;;;5102792;27;20186;-75
2021/07/04 07:57:53;;;;;;;26.10;8.40;;;26.10;99.90;;;;;;5071998;28;20189;-73
2021/07/04 08:00:21;;;;;;;32.10;9.60;;;26.30;99.90;;;;;;5087619;28;20200;-76
2021/07/04 08:02:47;;;;;;;28.58;9.43;;;26.40;99.90;;;;;;5085468;28;20182;-75
2021/07/04 08:05:14;;;;;;;31.13;8.38;;;26.60;99.90;;;;;;5072435;28;20221;-76
2021/07/04 08:07:41;;;;;;;28.73;8.93;;;26.80;99.90;;;;;;5071888;28;20203;-76
2021/07/04 08:10:08;;;;;;;26.45;9.05;;;26.90;99.90;;;;;;5088669;28;20699;-76
2021/07/04 08:12:35;;;;;;;23.98;9.25;;;27.10;99.90;;;;;;5094474;28;20187;-76
2021/07/04 08:15:04;;;;;;;27.67;9.15;;;27.10;99.90;;;;;;5097889;27;20182;-74
2021/07/04 08:17:30;;;;;;;31.02;9.60;;;27.30;99.90;;;;;;5087939;28;20837;-75
2021/07/04 08:19:57;;;;;;;26.00;8.50;;;27.40;99.90;;;;;;5098286;27;20836;-74
2021/07/04 08:22:24;;;;;;;31.52;8.20;;;27.40;99.90;;;;;;5088335;28;20233;-77
2021/07/04 08:24:50;;;;;;;30.50;8.75;;;27.50;99.90;;;;;;5102171;27;20179;-76
2021/07/04 08:27:17;;;;;;;26.48;8.57;;;27.60;99.90;;;;;;5084281;28;21268;-76
2021/07/04 08:29:43;;;;;;;24.38;9.15;;;27.60;99.90;;;;;;5085725;28;20221;-76
2021/07/04 08:32:11;;;;;;;23.05;7.70;;;27.70;99.90;;;;;;5087102;28;20181;-81
2021/07/04 08:34:37;;;;;;;26.30;8.73;;;27.70;99.90;;;;;;5062443;28;20225;-76
2021/07/04 08:37:04;;;;;;;28.42;8.45;;;27.70;99.90;;;;;;5083719;28;20278;-74
2021/07/04 08:39:31;;;;;;;29.30;8.55;;;27.70;99.90;;;;;;5086545;28;20185;-74
2021/07/04 08:41:58;;;;;;;23.02;7.82;;;27.80;99.90;;;;;;5082949;28;20331;-78
2021/07/04 08:44:25;;;;;;;22.83;7.80;;;27.90;99.90;;;;;;5093243;27;20532;-76
2021/07/04 08:46:53;;;;;;;23.92;8.02;;;27.90;99.90;;;;;;5097065;27;20190;-75
2021/07/04 08:49:25;;;;;;;27.33;8.52;;;28.00;99.90;;;;;;5065720;28;20332;-75
2021/07/04 08:51:52;;;;;;;28.00;7.93;;;28.00;99.90;;;;;;5115728;27;20277;-78
2021/07/04 08:54:20;;;;;;;31.27;9.00;;;28.10;99.90;;;;;;5085154;28;20791;-76
2021/07/04 08:56:51;;;;;;;35.33;9.20;;;28.10;99.90;;;;;;5067732;28;20666;-75
2021/07/04 08:59:18;;;;;;;21.38;7.25;;;28.10;99.90;;;;;;5097886;28;20206;-74
2021/07/04 09:01:50;;;;;;;31.85;8.02;;;28.10;99.90;;;;;;5077842;28;20236;-74
2021/07/04 09:04:20;;;;;;;26.25;8.32;;;28.20;99.90;;;;;;5082998;28;20282;-73
2021/07/04 09:06:55;;;;;;;25.88;8.07;;;28.30;99.90;;;;;;5097517;27;20186;-78
2021/07/04 09:09:34;;;;;;;25.20;7.80;;;28.10;99.90;;;;;;5087440;28;20667;-75
2021/07/04 09:12:11;;;;;;;29.92;7.72;;;28.40;99.90;;;;;;5094596;27;20849;-76
2021/07/04 09:14:42;;;;;;;27.80;8.38;;;28.50;99.90;;;;;;5063894;28;20231;-76
2021/07/04 09:17:19;;;;;;;21.05;7.55;;;28.50;99.90;;;;;;5096191;27;20328;-75
2021/07/04 09:19:59;;;;;;;16.80;7.40;;;28.40;99.90;;;;;;5064740;28;20552;-75
2021/07/04 09:22:36;;;;;;;25.35;7.47;;;28.50;99.90;;;;;;5116273;27;20193;-76
2021/07/04 09:25:23;;;;;;;21.20;7.82;;;28.80;99.90;;;;;;5098168;27;20289;-75
2021/07/04 09:28:10;;;;;;;23.48;7.65;;;28.90;99.90;;;;;;5099524;27;20190;-75
2021/07/04 09:30:53;;;;;;;16.98;7.75;;;29.00;99.90;;;;;;5086780;28;20185;-74
2021/07/04 09:33:38;;;;;;;20.42;7.82;;;28.90;99.90;;;;;;5082715;28;20686;-74
2021/07/04 09:36:10;;;;;;;16.77;7.20;;;28.90;99.90;;;;;;5079399;28;20174;-75
2021/07/04 09:38:44;;;;;;;17.48;6.53;;;29.00;99.90;;;;;;5077716;28;20180;-74
2021/07/04 09:41:16;;;;;;;18.83;6.30;;;29.10;99.90;;;;;;5077323;28;20182;-74
2021/07/04 09:43:44;;;;;;;18.55;7.13;;;29.20;99.90;;;;;;5084981;28;20209;-73
2021/07/04 09:46:15;;;;;;;17.80;6.40;;;29.10;99.90;;;;;;5097420;27;20177;-75
2021/07/04 09:48:51;;;;;;;17.00;6.45;;;29.20;99.90;;;;;;5058100;28;20214;-75
2021/07/04 09:51:27;;;;;;;12.77;5.78;;;29.30;99.90;;;;;;5080980;28;20588;-73
2021/07/04 09:54:00;;;;;;;22.67;6.93;;;29.50;99.90;;;;;;5078454;28;20304;-75
2021/07/04 09:56:29;;;;;;;12.35;5.78;;;29.50;99.90;;;;;;5103703;27;20220;-75
2021/07/04 09:59:02;;;;;;;13.60;5.70;;;29.60;99.90;;;;;;5082309;28;20328;-75
2021/07/04 10:01:40;;;;;;;14.82;6.28;;;29.60;99.90;;;;;;5102568;27;20243;-75
2021/07/04 10:04:34;;;;;;;12.98;5.55;;;29.60;99.90;;;;;;5084467;28;20182;-73
2021/07/04 10:07:02;;;;;;;16.10;5.93;;;29.70;99.90;;;;;;5086269;28;20269;-75
2021/07/04 10:09:31;;;;;;;16.02;5.70;;;29.80;99.90;;;;;;5085696;28;20602;-76
2021/07/04 10:12:00;;;;;;;13.50;4.50;;;29.70;99.90;;;;;;5066273;28;20194;-74
2021/07/04 10:14:27;;;;;;;11.18;5.38;;;29.90;99.90;;;;;;5085444;28;20202;-76
2021/07/04 10:16:56;;;;;;;15.18;5.10;;;29.80;99.90;;;;;;5084377;28;20912;-73
2021/07/04 10:19:26;;;;;;;8.70;4.40;;;29.90;99.90;;;;;;5090119;28;20200;-74
2021/07/04 10:22:02;;;;;;;13.98;4.68;;;30.10;99.90;;;;;;5082502;28;20193;-75
2021/07/04 10:24:29;;;;;;;11.15;4.20;;;30.00;99.90;;;;;;5100780;27;20178;-76
2021/07/04 10:27:03;;;;;;;10.27;4.40;;;30.30;99.90;;;;;;5099948;28;20253;-74
2021/07/04 10:29:33;;;;;;;7.47;4.20;;;30.20;99.90;;;;;;5082475;28;20182;-75
2021/07/04 10:32:13;;;;;;;10.20;3.80;;;30.30;99.90;;;;;;5081499;28;20193;-74
2021/07/04 10:34:48;;;;;;;10.32;3.70;;;30.70;99.90;;;;;;5081536;28;20210;-76
2021/07/04 10:37:33;;;;;;;8.73;3.70;;;30.60;99.90;;;;;;5067030;28;20177;-75
2021/07/04 10:40:15;;;;;;;16.60;4.53;;;30.50;99.90;;;;;;5081655;28;20236;-76
2021/07/04 10:42:43;;;;;;;6.88;3.35;;;30.60;99.90;;;;;;5096861;28;20276;-73
2021/07/04 10:45:42;;;;;;;14.85;3.90;;;30.50;99.90;;;;;;5084055;28;20169;-77
2021/07/04 10:48:28;;;;;;;9.57;3.80;;;30.70;99.90;;;;;;5075737;28;20193;-74
2021/07/04 10:51:16;;;;;;;7.97;3.33;;;30.70;99.90;;;;;;5077988;28;20688;-74
2021/07/04 10:53:55;;;;;;;12.38;3.92;;;30.70;99.90;;;;;;5096809;28;20842;-76
2021/07/04 10:56:33;;;;;;;8.20;3.33;;;30.50;99.90;;;;;;5087305;28;21375;-74
2021/07/04 10:59:15;;;;;;;10.02;3.47;;;30.50;99.90;;;;;;5088626;28;20669;-75
2021/07/04 11:02:00;;;;;;;12.20;3.50;;;30.70;99.90;;;;;;5107115;28;20185;-75
2021/07/04 11:04:51;;;;;;;10.77;3.38;;;30.90;99.90;;;;;;5087633;28;20918;-75
2021/07/04 11:07:18;;;;;;;10.27;3.22;;;30.70;99.90;;;;;;5072609;28;20189;-74
2021/07/04 11:09:56;;;;;;;9.20;3.00;;;30.80;99.90;;;;;;5084850;28;20193;-75
2021/07/04 11:12:31;;;;;;;9.07;3.38;;;30.80;99.90;;;;;;5101236;28;20174;-74
2021/07/04 11:15:13;;;;;;;10.20;3.55;;;30.80;99.90;;;;;;5108352;28;20200;-74
2021/07/04 11:18:00;;;;;;;9.35;3.38;;;30.70;99.90;;;;;;5105084;28;20650;-75
2021/07/04 11:20:47;;;;;;;8.07;3.28;;;30.70;99.90;;;;;;5080755;28;20821;-75
2021/07/04 11:23:22;;;;;;;12.05;2.90;;;30.90;99.90;;;;;;5086911;28;20227;-75
2021/07/04 11:26:09;;;;;;;8.27;3.10;;;30.70;99.90;;;;;;5091012;28;20180;-75
2021/07/04 11:28:50;;;;;;;8.68;2.78;;;30.80;99.90;;;;;;5088412;28;20687;-74
2021/07/04 11:31:20;;;;;;;6.07;3.05;;;30.70;99.90;;;;;;5093591;28;20296;-76
2021/07/04 11:33:51;;;;;;;5.70;2.30;;;30.60;99.90;;;;;;5109790;27;20313;-74
2021/07/04 11:36:25;;;;;;;9.75;2.78;;;30.70;99.90;;;;;;5088509;28;20231;-75
2021/07/04 11:39:13;;;;;;;8.75;2.80;;;31.00;99.90;;;;;;5072085;28;20187;-77
2021/07/04 11:41:44;;;;;;;6.28;2.92;;;30.80;99.90;;;;;;5086544;28;20300;-76
2021/07/04 11:44:18;;;;;;;11.93;2.90;;;30.90;99.90;;;;;;5080677;28;20197;-75
2021/07/04 11:46:50;;;;;;;8.55;3.08;;;31.10;99.90;;;;;;5075360;28;20990;-74
2021/07/04 11:49:26;;;;;;;11.40;3.35;;;30.90;99.90;;;;;;5094763;28;20940;-75
2021/07/04 11:52:01;;;;;;;11.18;3.40;;;30.80;99.90;;;;;;5077591;28;20206;-75
2021/07/04 11:54:32;;;;;;;13.57;2.97;;;31.00;99.90;;;;;;5107374;27;20262;-77
2021/07/04 11:59:59;;;;;;;7.90;2.65;;;31.10;99.90;;;;;;5088038;28;20595;-74
2021/07/04 12:02:27;;;;;;;9.55;2.90;;;31.00;99.90;;;;;;5106698;27;20175;-75
2021/07/04 12:04:54;;;;;;;9.27;3.30;;;30.90;99.90;;;;;;5091356;28;20177;-76
2021/07/04 12:07:27;;;;;;;10.27;3.17;;;31.00;99.90;;;;;;5107185;27;20200;-75
2021/07/04 12:09:57;;;;;;;12.48;3.47;;;30.80;99.90;;;;;;5091834;28;20178;-75
2021/07/04 12:12:31;;;;;;;14.32;3.10;;;30.90;99.90;;;;;;5088273;28;20268;-77
2021/07/04 12:15:05;;;;;;;10.40;3.25;;;30.70;99.90;;;;;;5092581;28;20277;-75
2021/07/04 12:17:43;;;;;;;7.20;3.05;;;31.00;99.90;;;;;;5090420;28;20180;-76
2021/07/04 12:20:20;;;;;;;11.77;3.03;;;30.80;99.90;;;;;;5106625;27;20209;-76
2021/07/04 12:23:02;;;;;;;10.80;2.95;;;30.80;99.90;;;;;;5075343;28;20185;-75
2021/07/04 12:25:42;;;;;;;13.90;3.08;;;30.90;99.90;;;;;;5107528;27;20242;-74
2021/07/04 12:28:15;;;;;;;9.35;2.75;;;30.80;99.90;;;;;;5108101;27;20821;-76
2021/07/04 12:30:48;;;;;;;6.97;2.20;;;31.10;99.90;;;;;;5107246;27;20213;-74
2021/07/04 12:33:18;;;;;;;7.95;2.92;;;31.10;99.90;;;;;;5090891;28;20202;-76
2021/07/04 12:35:56;;;;;;;4.97;2.50;;;30.80;99.90;;;;;;5090934;28;20181;-75
2021/07/04 12:38:26;;;;;;;5.95;2.40;;;31.10;99.90;;;;;;5087887;28;20175;-77
2021/07/04 12:41:04;;;;;;;7.43;2.53;;;31.10;99.90;;;;;;5093057;28;20185;-75
2021/07/04 12:43:37;;;;;;;3.72;1.80;;;30.80;98.10;;;;;;5076561;28;20673;-74
2021/07/04 12:46:24;;;;;;;2.25;1.40;;;30.80;94.60;;;;;;5091798;28;20308;-77
2021/07/04 12:48:55;;;;;;;4.28;2.00;;;30.80;91.20;;;;;;5091121;28;20198;-74
2021/07/04 12:51:29;;;;;;;6.18;1.92;;;30.70;93.20;;;;;;5109280;27;20290;-77
2021/07/04 12:53:57;;;;;;;4.32;1.77;;;31.00;91.30;;;;;;5080945;28;20197;-75